Time,TemperatureF,DewpointF,PressureIn,WindDirection,WindDirectionDegrees,WindSpeedMPH,WindSpeedGustMPH,Humidity,HourlyPrecipIn,Conditions,Clouds,dailyrainin,SoftwareType,DateUTC
2013-02-19 00:00:00,21.7,15.1,30.16,ENE,71,0.0,0.0,75,0.00,,,0.00,meteohub,2013-02-19 05:00:00,
2013-02-19 00:02:00,21.7,15.1,30.15,ENE,71,0.0,0.0,75,0.00,,,0.00,meteohub,2013-02-19 05:02:00,
2013-02-19 00:08:00,21.6,15.3,30.15,ENE,71,0.0,0.0,76,0.00,,,0.00,meteohub,2013-02-19 05:08:00,
2013-02-19 00:13:00,21.6,15.3,30.15,ENE,70,0.0,0.0,76,0.00,,,0.00,meteohub,2013-02-19 05:13:00,
2013-02-19 00:18:00,21.4,15.3,30.15,ENE,71,0.0,0.0,77,0.00,,,0.00,meteohub,2013-02-19 05:18:00,
2013-02-19 00:23:00,21.2,15.1,30.14,ENE,71,0.0,0.0,77,0.00,,,0.00,meteohub,2013-02-19 05:23:00,
2013-02-19 00:28:00,21.0,14.9,30.14,ENE,70,0.0,0.0,77,0.00,,,0.00,meteohub,2013-02-19 05:28:00,
2013-02-19 00:33:00,21.0,14.9,30.14,ENE,71,0.0,0.0,77,0.00,,,0.00,meteohub,2013-02-19 05:33:00,
2013-02-19 00:38:00,20.8,15.1,30.14,ENE,70,0.0,0.0,78,0.00,,,0.00,meteohub,2013-02-19 05:38:00,
2013-02-19 00:43:00,20.5,14.7,30.14,ENE,71,0.0,0.0,78,0.00,,,0.00,meteohub,2013-02-19 05:43:00,
2013-02-19 00:49:00,20.7,15.3,30.14,ENE,71,0.0,0.0,79,0.00,,,0.00,meteohub,2013-02-19 05:49:00,
2013-02-19 00:54:00,20.5,14.7,30.14,ENE,71,0.0,0.0,78,0.00,,,0.00,meteohub,2013-02-19 05:54:00,
2013-02-19 00:59:00,20.1,14.9,30.14,ENE,71,0.0,0.0,80,0.00,,,0.00,meteohub,2013-02-19 05:59:00,
2013-02-19 01:04:00,20.1,15.4,30.13,ENE,71,0.0,0.0,82,0.00,,,0.00,meteohub,2013-02-19 06:04:00,
2013-02-19 01:09:00,20.3,15.1,30.13,ENE,70,0.0,0.0,80,0.00,,,0.00,meteohub,2013-02-19 06:09:00,
2013-02-19 01:14:00,20.1,14.9,30.13,ENE,71,0.0,0.0,80,0.00,,,0.00,meteohub,2013-02-19 06:14:00,
2013-02-19 01:19:00,19.9,14.5,30.13,ENE,71,0.0,0.0,79,0.00,,,0.00,meteohub,2013-02-19 06:19:00,
2013-02-19 01:24:00,19.9,14.5,30.12,ENE,70,0.0,0.0,79,0.00,,,0.00,meteohub,2013-02-19 06:24:00,
2013-02-19 01:29:00,20.1,14.7,30.12,ENE,71,0.0,0.0,79,0.00,,,0.00,meteohub,2013-02-19 06:29:00,
2013-02-19 01:34:00,20.1,14.7,30.12,ENE,71,0.0,0.0,79,0.00,,,0.00,meteohub,2013-02-19 06:34:00,
2013-02-19 01:40:00,20.3,14.5,30.12,ENE,70,0.0,0.0,78,0.00,,,0.00,meteohub,2013-02-19 06:40:00,
2013-02-19 01:45:00,20.1,14.4,30.12,ENE,71,0.0,0.0,78,0.00,,,0.00,meteohub,2013-02-19 06:45:00,
2013-02-19 01:50:00,19.9,14.5,30.11,ENE,71,0.0,0.0,79,0.00,,,0.00,meteohub,2013-02-19 06:50:00,
2013-02-19 01:55:00,19.8,14.5,30.11,ENE,70,0.0,0.0,80,0.00,,,0.00,meteohub,2013-02-19 06:55:00,
2013-02-19 02:00:00,19.6,14.4,30.11,ENE,70,0.0,0.0,80,0.00,,,0.00,meteohub,2013-02-19 07:00:00,
2013-02-19 02:05:00,19.4,14.2,30.10,ENE,71,0.0,0.0,80,0.00,,,0.00,meteohub,2013-02-19 07:05:00,
2013-02-19 02:10:00,19.2,14.4,30.10,ENE,70,0.0,0.0,81,0.00,,,0.00,meteohub,2013-02-19 07:10:00,
2013-02-19 02:16:00,19.6,14.7,30.10,ENE,70,0.0,0.0,81,0.00,,,0.00,meteohub,2013-02-19 07:16:00,
2013-02-19 02:21:00,19.8,14.5,30.10,ENE,68,0.0,0.0,80,0.00,,,0.00,meteohub,2013-02-19 07:21:00,
2013-02-19 02:26:00,19.9,14.7,30.10,ENE,68,0.0,0.0,80,0.00,,,0.00,meteohub,2013-02-19 07:26:00,
2013-02-19 02:31:00,19.9,14.7,30.10,ENE,68,0.0,0.0,80,0.00,,,0.00,meteohub,2013-02-19 07:31:00,
2013-02-19 02:36:00,19.8,14.9,30.09,ENE,68,0.0,0.0,81,0.00,,,0.00,meteohub,2013-02-19 07:36:00,
2013-02-19 02:41:00,19.6,14.7,30.09,ENE,68,0.0,0.0,81,0.00,,,0.00,meteohub,2013-02-19 07:41:00,
2013-02-19 02:46:00,19.2,14.4,30.09,ENE,68,0.0,0.0,81,0.00,,,0.00,meteohub,2013-02-19 07:46:00,
2013-02-19 02:51:00,19.0,14.7,30.09,ENE,68,0.0,0.0,83,0.00,,,0.00,meteohub,2013-02-19 07:51:00,
2013-02-19 02:56:00,19.0,14.7,30.09,ENE,68,0.0,0.0,83,0.00,,,0.00,meteohub,2013-02-19 07:56:00,
2013-02-19 03:02:00,18.9,14.9,30.08,ENE,68,0.0,0.0,84,0.00,,,0.00,meteohub,2013-02-19 08:02:00,
2013-02-19 03:07:00,18.7,14.7,30.09,ENE,68,0.0,0.0,84,0.00,,,0.00,meteohub,2013-02-19 08:07:00,
2013-02-19 03:12:00,18.5,14.5,30.08,ENE,68,0.0,0.0,84,0.00,,,0.00,meteohub,2013-02-19 08:12:00,
2013-02-19 03:17:00,18.3,14.5,30.08,ENE,68,0.0,0.0,85,0.00,,,0.00,meteohub,2013-02-19 08:17:00,
2013-02-19 03:22:00,18.1,14.4,30.08,ENE,68,0.0,0.0,85,0.00,,,0.00,meteohub,2013-02-19 08:22:00,
2013-02-19 03:27:00,18.0,14.2,30.08,ENE,68,0.0,0.0,85,0.00,,,0.00,meteohub,2013-02-19 08:27:00,
2013-02-19 03:32:00,17.8,14.0,30.08,ENE,68,0.0,0.0,85,0.00,,,0.00,meteohub,2013-02-19 08:32:00,
2013-02-19 03:37:00,18.0,14.5,30.09,ENE,68,0.0,0.0,86,0.00,,,0.00,meteohub,2013-02-19 08:37:00,
2013-02-19 03:42:00,17.8,14.4,30.08,ENE,68,0.0,0.0,86,0.00,,,0.00,meteohub,2013-02-19 08:42:00,
2013-02-19 03:47:00,18.1,14.7,30.08,ENE,68,0.0,0.0,86,0.00,,,0.00,meteohub,2013-02-19 08:47:00,
2013-02-19 03:52:00,18.3,14.5,30.08,ENE,68,0.0,0.0,85,0.00,,,0.00,meteohub,2013-02-19 08:52:00,
2013-02-19 03:57:00,18.3,14.4,30.07,ENE,68,0.0,0.0,84,0.00,,,0.00,meteohub,2013-02-19 08:57:00,
2013-02-19 04:02:00,18.3,14.4,30.07,ENE,68,0.0,0.0,84,0.00,,,0.00,meteohub,2013-02-19 09:02:00,
2013-02-19 04:07:00,18.5,14.7,30.07,ENE,68,0.0,0.0,85,0.00,,,0.00,meteohub,2013-02-19 09:07:00,
2013-02-19 04:12:00,18.3,14.5,30.07,ENE,68,0.0,0.0,85,0.00,,,0.00,meteohub,2013-02-19 09:12:00,
2013-02-19 04:17:00,18.3,14.9,30.07,ENE,68,0.0,0.0,86,0.00,,,0.00,meteohub,2013-02-19 09:17:00,
2013-02-19 04:22:00,18.1,14.4,30.07,ENE,68,0.0,0.0,85,0.00,,,0.00,meteohub,2013-02-19 09:22:00,
2013-02-19 04:27:00,18.1,14.7,30.06,ENE,68,0.0,0.0,86,0.00,,,0.00,meteohub,2013-02-19 09:27:00,
2013-02-19 04:32:00,18.3,14.5,30.06,ENE,68,0.0,0.0,85,0.00,,,0.00,meteohub,2013-02-19 09:32:00,
2013-02-19 04:37:00,18.1,14.4,30.06,ENE,68,0.0,0.0,85,0.00,,,0.00,meteohub,2013-02-19 09:37:00,
2013-02-19 04:42:00,18.0,14.2,30.06,ENE,68,0.0,0.0,85,0.00,,,0.00,meteohub,2013-02-19 09:42:00,
2013-02-19 04:47:00,17.8,14.0,30.05,ENE,68,0.0,0.0,85,0.00,,,0.00,meteohub,2013-02-19 09:47:00,
2013-02-19 04:52:00,17.4,14.0,30.05,ENE,68,0.0,0.0,86,0.00,,,0.00,meteohub,2013-02-19 09:52:00,
2013-02-19 04:57:00,17.4,14.0,30.04,ENE,68,0.0,0.0,86,0.00,,,0.00,meteohub,2013-02-19 09:57:00,
2013-02-19 05:02:00,17.1,13.6,30.04,ENE,68,0.0,0.0,86,0.00,,,0.00,meteohub,2013-02-19 10:02:00,
2013-02-19 05:07:00,16.9,13.5,30.04,ENE,68,0.0,0.0,86,0.00,,,0.00,meteohub,2013-02-19 10:07:00,
2013-02-19 05:12:00,16.7,13.3,30.04,ENE,68,0.0,0.0,86,0.00,,,0.00,meteohub,2013-02-19 10:12:00,
2013-02-19 05:17:00,16.5,13.3,30.04,ENE,68,0.0,0.0,87,0.00,,,0.00,meteohub,2013-02-19 10:17:00,
2013-02-19 05:22:00,16.3,13.1,30.04,ENE,68,0.0,0.0,87,0.00,,,0.00,meteohub,2013-02-19 10:22:00,
2013-02-19 05:27:00,16.2,12.9,30.04,ENE,68,0.0,0.0,87,0.00,,,0.00,meteohub,2013-02-19 10:27:00,
2013-02-19 05:32:00,16.9,14.2,30.04,ENE,68,0.0,0.0,89,0.00,,,0.00,meteohub,2013-02-19 10:32:00,
2013-02-19 05:37:00,17.1,14.2,30.03,ENE,68,0.0,0.0,88,0.00,,,0.00,meteohub,2013-02-19 10:37:00,
2013-02-19 05:42:00,17.1,14.2,30.03,ENE,68,0.0,0.0,88,0.00,,,0.00,meteohub,2013-02-19 10:42:00,
2013-02-19 05:47:00,16.9,14.0,30.03,ENE,68,0.0,0.0,88,0.00,,,0.00,meteohub,2013-02-19 10:47:00,
2013-02-19 05:52:00,16.5,13.6,30.03,ENE,68,0.0,0.0,88,0.00,,,0.00,meteohub,2013-02-19 10:52:00,
2013-02-19 05:58:00,16.7,13.8,30.02,ENE,68,0.0,0.0,88,0.00,,,0.00,meteohub,2013-02-19 10:58:00,
2013-02-19 06:03:00,17.1,14.4,30.02,ENE,68,0.0,0.0,89,0.00,,,0.00,meteohub,2013-02-19 11:03:00,
2013-02-19 06:08:00,17.1,14.2,30.02,ENE,68,0.0,0.0,88,0.00,,,0.00,meteohub,2013-02-19 11:08:00,
2013-02-19 06:13:00,16.9,14.0,30.01,ENE,68,0.0,0.0,88,0.00,,,0.00,meteohub,2013-02-19 11:13:00,
2013-02-19 06:18:00,16.9,14.0,30.01,ENE,68,0.0,0.0,88,0.00,,,0.00,meteohub,2013-02-19 11:18:00,
2013-02-19 06:23:00,16.5,13.6,30.01,ENE,68,0.0,0.0,88,0.00,,,0.00,meteohub,2013-02-19 11:23:00,
2013-02-19 06:28:00,16.3,13.6,30.00,ENE,68,0.0,0.0,89,0.00,,,0.00,meteohub,2013-02-19 11:28:00,
2013-02-19 06:33:00,16.2,13.5,30.01,ENE,68,0.0,0.0,89,0.00,,,0.00,meteohub,2013-02-19 11:33:00,
2013-02-19 06:38:00,16.2,13.5,30.00,ENE,68,0.0,0.0,89,0.00,,,0.00,meteohub,2013-02-19 11:38:00,
2013-02-19 06:43:00,16.2,13.5,30.00,ENE,68,0.0,0.0,89,0.00,,,0.00,meteohub,2013-02-19 11:43:00,
2013-02-19 06:49:00,16.3,14.0,30.01,ENE,68,0.0,0.0,90,0.00,,,0.00,meteohub,2013-02-19 11:49:00,
2013-02-19 06:54:00,16.3,14.0,30.01,ENE,68,0.0,0.0,90,0.00,,,0.00,meteohub,2013-02-19 11:54:00,
2013-02-19 06:59:00,16.5,14.2,30.01,ENE,68,0.0,0.0,90,0.00,,,0.00,meteohub,2013-02-19 11:59:00,
2013-02-19 07:04:00,16.9,14.5,30.01,ENE,68,0.0,0.0,90,0.00,,,0.00,meteohub,2013-02-19 12:04:00,
2013-02-19 07:09:00,17.1,14.7,30.01,ENE,68,0.0,0.0,90,0.00,,,0.00,meteohub,2013-02-19 12:09:00,
2013-02-19 07:14:00,17.4,15.1,30.01,ENE,68,0.0,0.0,90,0.00,,,0.00,meteohub,2013-02-19 12:14:00,
2013-02-19 07:19:00,18.0,15.8,30.01,ENE,68,0.0,0.0,91,0.00,,,0.00,meteohub,2013-02-19 12:19:00,
2013-02-19 07:24:00,18.7,16.5,30.01,ENE,68,0.0,0.0,91,0.00,,,0.00,meteohub,2013-02-19 12:24:00,
2013-02-19 07:29:00,19.0,16.5,30.01,ENE,68,0.0,0.0,90,0.00,,,0.00,meteohub,2013-02-19 12:29:00,
2013-02-19 07:35:00,19.6,17.1,30.00,ENE,68,0.0,0.0,90,0.00,,,0.00,meteohub,2013-02-19 12:35:00,
2013-02-19 07:40:00,19.9,17.4,30.01,ENE,66,0.0,0.0,90,0.00,,,0.00,meteohub,2013-02-19 12:40:00,
2013-02-19 07:45:00,20.5,18.0,30.01,ENE,77,0.0,0.0,90,0.00,,,0.00,meteohub,2013-02-19 12:45:00,
2013-02-19 07:50:00,20.8,18.3,30.00,ENE,78,0.0,0.0,90,0.00,,,0.00,meteohub,2013-02-19 12:50:00,
2013-02-19 07:55:00,21.0,18.3,30.00,SE,132,0.0,0.0,89,0.00,,,0.00,meteohub,2013-02-19 12:55:00,
2013-02-19 08:00:00,21.4,18.7,29.99,SE,132,0.0,0.0,89,0.00,,,0.00,meteohub,2013-02-19 13:00:00,
2013-02-19 08:05:00,21.7,19.0,29.99,SE,133,0.0,0.0,89,0.00,,,0.00,meteohub,2013-02-19 13:05:00,
2013-02-19 08:10:00,22.3,19.6,29.99,South,191,0.0,0.0,89,0.00,,,0.00,meteohub,2013-02-19 13:10:00,
2013-02-19 08:15:00,22.5,19.4,30.00,South,191,0.0,0.0,88,0.00,,,0.00,meteohub,2013-02-19 13:15:00,
2013-02-19 08:20:00,23.0,19.9,30.00,South,191,0.0,0.0,88,0.00,,,0.00,meteohub,2013-02-19 13:20:00,
2013-02-19 08:25:00,23.5,20.3,29.99,East,101,0.0,0.0,87,0.00,,,0.00,meteohub,2013-02-19 13:25:00,
2013-02-19 08:31:00,24.1,20.5,29.99,East,101,0.0,0.0,86,0.00,,,0.00,meteohub,2013-02-19 13:31:00,
2013-02-19 08:36:00,24.6,21.0,29.98,East,101,0.0,0.0,86,0.00,,,0.00,meteohub,2013-02-19 13:36:00,
2013-02-19 08:41:00,25.2,21.4,29.98,East,101,0.0,0.0,85,0.00,,,0.00,meteohub,2013-02-19 13:41:00,
2013-02-19 08:46:00,25.9,21.7,29.97,ESE,102,0.0,0.0,84,0.00,,,0.00,meteohub,2013-02-19 13:46:00,
2013-02-19 08:51:00,27.0,22.8,29.96,ESE,102,0.0,0.0,84,0.00,,,0.00,meteohub,2013-02-19 13:51:00,
2013-02-19 08:56:00,27.9,23.0,29.96,East,101,0.0,0.0,82,0.00,,,0.00,meteohub,2013-02-19 13:56:00,
2013-02-19 09:01:00,28.2,23.2,29.96,WSW,241,0.0,0.0,81,0.00,,,0.00,meteohub,2013-02-19 14:01:00,
2013-02-19 09:06:00,28.9,23.9,29.96,WSW,250,0.0,0.0,81,0.00,,,0.00,meteohub,2013-02-19 14:06:00,
2013-02-19 09:11:00,30.2,25.7,29.94,NW,305,0.0,0.0,83,0.00,,,0.00,meteohub,2013-02-19 14:11:00,
2013-02-19 09:16:00,31.8,26.1,29.94,NE,52,0.0,0.0,79,0.00,,,0.00,meteohub,2013-02-19 14:16:00,
2013-02-19 09:22:00,33.1,26.6,29.94,SE,132,0.0,1.0,77,0.00,,,0.00,meteohub,2013-02-19 14:22:00,
2013-02-19 09:27:00,34.0,27.0,29.93,SE,146,0.0,1.0,75,0.00,,,0.00,meteohub,2013-02-19 14:27:00,
2013-02-19 09:32:00,34.9,26.8,29.94,SE,134,1.0,4.0,72,0.00,,,0.00,meteohub,2013-02-19 14:32:00,
2013-02-19 09:37:00,35.4,27.3,29.94,SE,135,0.0,4.0,72,0.00,,,0.00,meteohub,2013-02-19 14:37:00,
2013-02-19 09:42:00,36.0,27.1,29.93,ENE,77,3.0,4.0,70,0.00,,,0.00,meteohub,2013-02-19 14:42:00,
2013-02-19 09:47:00,36.1,27.0,29.93,ESE,110,2.0,5.0,69,0.00,,,0.00,meteohub,2013-02-19 14:47:00,
2013-02-19 09:52:00,36.5,27.0,29.92,SE,134,3.0,5.0,68,0.00,,,0.00,meteohub,2013-02-19 14:52:00,
2013-02-19 09:57:00,36.9,27.3,29.92,SE,131,2.0,5.0,68,0.00,,,0.00,meteohub,2013-02-19 14:57:00,
2013-02-19 10:02:00,37.2,27.3,29.91,SE,128,6.0,7.0,67,0.00,,,0.00,meteohub,2013-02-19 15:02:00,
2013-02-19 10:07:00,37.6,28.0,29.91,East,89,2.0,7.0,68,0.00,,,0.00,meteohub,2013-02-19 15:07:00,
2013-02-19 10:12:00,38.3,28.2,29.92,SSE,160,2.0,7.0,67,0.00,,,0.00,meteohub,2013-02-19 15:12:00,
2013-02-19 10:17:00,38.8,28.0,29.93,SSE,155,5.0,7.0,65,0.00,,,0.00,meteohub,2013-02-19 15:17:00,
2013-02-19 10:22:00,39.0,27.9,29.92,East,101,4.0,7.0,64,0.00,,,0.00,meteohub,2013-02-19 15:22:00,
2013-02-19 10:27:00,39.7,28.2,29.91,SSE,153,3.0,7.0,63,0.00,,,0.00,meteohub,2013-02-19 15:27:00,
2013-02-19 10:32:00,40.3,28.8,29.91,SE,145,1.0,7.0,63,0.00,,,0.00,meteohub,2013-02-19 15:32:00,
2013-02-19 10:37:00,40.5,28.4,29.91,NNW,345,1.0,7.0,62,0.00,,,0.00,meteohub,2013-02-19 15:37:00,
2013-02-19 10:42:00,41.2,29.1,29.91,SE,138,6.0,6.0,62,0.00,,,0.00,meteohub,2013-02-19 15:42:00,
2013-02-19 10:47:00,42.1,29.7,29.91,SSW,204,3.0,10.0,61,0.00,,,0.00,meteohub,2013-02-19 15:47:00,
2013-02-19 10:52:00,42.6,29.3,29.91,SSW,197,1.0,10.0,59,0.00,,,0.00,meteohub,2013-02-19 15:52:00,
2013-02-19 10:57:00,43.2,28.9,29.90,SSE,162,2.0,10.0,57,0.00,,,0.00,meteohub,2013-02-19 15:57:00,
2013-02-19 11:02:00,43.5,28.9,29.90,ESE,120,4.0,10.0,56,0.00,,,0.00,meteohub,2013-02-19 16:02:00,
2013-02-19 11:07:00,43.9,28.8,29.90,SSE,150,3.0,10.0,55,0.00,,,0.00,meteohub,2013-02-19 16:07:00,
2013-02-19 11:12:00,43.9,28.8,29.90,South,186,4.0,13.0,55,0.00,,,0.00,meteohub,2013-02-19 16:12:00,
2013-02-19 11:17:00,43.7,28.6,29.90,SSW,207,1.0,13.0,55,0.00,,,0.00,meteohub,2013-02-19 16:17:00,
2013-02-19 11:22:00,43.5,28.9,29.91,WSW,240,4.0,14.0,56,0.00,,,0.00,meteohub,2013-02-19 16:22:00,
2013-02-19 11:27:00,43.0,30.0,29.91,SW,233,5.0,14.0,60,0.00,,,0.00,meteohub,2013-02-19 16:27:00,
2013-02-19 11:32:00,42.3,32.2,29.91,SW,225,2.0,14.0,67,0.00,,,0.00,meteohub,2013-02-19 16:32:00,
2013-02-19 11:37:00,41.0,33.1,29.91,West,280,2.0,10.0,73,0.00,,,0.00,meteohub,2013-02-19 16:37:00,
2013-02-19 11:42:00,39.9,33.3,29.90,SSE,165,4.0,10.0,77,0.00,,,0.00,meteohub,2013-02-19 16:42:00,
2013-02-19 11:47:00,39.0,33.4,29.90,SE,137,4.0,8.0,80,0.01,,,0.01,meteohub,2013-02-19 16:47:00,
2013-02-19 11:52:00,38.3,33.6,29.90,SW,225,2.0,8.0,83,0.02,,,0.02,meteohub,2013-02-19 16:52:00,
2013-02-19 11:57:00,37.8,33.6,29.90,SE,136,4.0,8.0,85,0.03,,,0.03,meteohub,2013-02-19 16:57:00,
2013-02-19 12:02:00,37.2,33.4,29.89,West,268,0.0,6.0,86,0.04,,,0.04,meteohub,2013-02-19 17:02:00,
2013-02-19 12:07:00,37.0,33.6,29.88,East,95,2.0,6.0,87,0.05,,,0.05,meteohub,2013-02-19 17:07:00,
2013-02-19 12:12:00,36.9,33.6,29.88,ESE,114,2.0,6.0,88,0.06,,,0.06,meteohub,2013-02-19 17:12:00,
2013-02-19 12:17:00,36.7,33.4,29.87,SW,232,0.0,6.0,88,0.07,,,0.07,meteohub,2013-02-19 17:17:00,
2013-02-19 12:22:00,36.7,33.8,29.86,ESE,111,1.0,6.0,89,0.07,,,0.07,meteohub,2013-02-19 17:22:00,
2013-02-19 12:27:00,36.7,34.0,29.86,WSW,238,0.0,6.0,90,0.08,,,0.08,meteohub,2013-02-19 17:27:00,
2013-02-19 12:32:00,36.9,34.2,29.86,SE,146,1.0,6.0,90,0.09,,,0.09,meteohub,2013-02-19 17:32:00,
2013-02-19 12:37:00,37.0,34.3,29.85,South,188,3.0,4.0,90,0.09,,,0.09,meteohub,2013-02-19 17:37:00,
2013-02-19 12:42:00,37.2,34.9,29.85,SSW,210,2.0,6.0,91,0.09,,,0.10,meteohub,2013-02-19 17:42:00,
2013-02-19 12:47:00,37.4,35.1,29.84,SE,137,1.0,7.0,91,0.10,,,0.11,meteohub,2013-02-19 17:47:00,
2013-02-19 12:52:00,37.6,35.2,29.84,SW,219,1.0,7.0,91,0.09,,,0.12,meteohub,2013-02-19 17:52:00,
2013-02-19 12:57:00,37.6,35.2,29.83,SSE,148,1.0,5.0,91,0.09,,,0.12,meteohub,2013-02-19 17:57:00,
2013-02-19 13:02:00,37.8,35.4,29.82,ESE,114,2.0,4.0,91,0.09,,,0.13,meteohub,2013-02-19 18:02:00,
2013-02-19 13:07:00,37.8,35.4,29.82,South,172,4.0,6.0,91,0.08,,,0.13,meteohub,2013-02-19 18:07:00,
2013-02-19 13:12:00,37.9,35.6,29.82,SSW,201,1.0,6.0,91,0.08,,,0.14,meteohub,2013-02-19 18:12:00,
2013-02-19 13:17:00,37.9,35.8,29.81,SW,229,0.0,6.0,92,0.07,,,0.14,meteohub,2013-02-19 18:17:00,
2013-02-19 13:22:00,37.9,35.8,29.81,SSW,209,1.0,4.0,92,0.08,,,0.16,meteohub,2013-02-19 18:22:00,
2013-02-19 13:27:00,38.1,36.0,29.81,SE,138,0.0,4.0,92,0.08,,,0.16,meteohub,2013-02-19 18:27:00,
2013-02-19 13:32:00,38.1,36.0,29.81,SSW,211,1.0,4.0,92,0.08,,,0.17,meteohub,2013-02-19 18:32:00,
2013-02-19 13:37:00,38.5,36.3,29.80,East,82,1.0,3.0,92,0.08,,,0.18,meteohub,2013-02-19 18:37:00,
2013-02-19 13:42:00,38.5,36.3,29.80,SE,127,0.0,3.0,92,0.07,,,0.18,meteohub,2013-02-19 18:42:00,
2013-02-19 13:47:00,38.7,36.5,29.79,SSW,212,0.0,3.0,92,0.08,,,0.19,meteohub,2013-02-19 18:47:00,
2013-02-19 13:52:00,38.8,36.7,29.79,South,181,1.0,5.0,92,0.07,,,0.19,meteohub,2013-02-19 18:52:00,
2013-02-19 13:57:00,39.0,36.9,29.78,SE,131,3.0,5.0,92,0.08,,,0.20,meteohub,2013-02-19 18:57:00,
2013-02-19 14:02:00,39.2,37.0,29.78,ESE,108,1.0,5.0,92,0.07,,,0.20,meteohub,2013-02-19 19:02:00,
2013-02-19 14:07:00,39.4,37.2,29.77,South,191,1.0,5.0,92,0.08,,,0.21,meteohub,2013-02-19 19:07:00,
2013-02-19 14:12:00,39.4,37.2,29.77,SW,231,2.0,5.0,92,0.07,,,0.21,meteohub,2013-02-19 19:12:00,
2013-02-19 14:17:00,39.4,37.2,29.76,SSE,167,1.0,5.0,92,0.07,,,0.22,meteohub,2013-02-19 19:17:00,
2013-02-19 14:22:00,39.4,37.2,29.76,South,177,0.0,4.0,92,0.06,,,0.22,meteohub,2013-02-19 19:22:00,
2013-02-19 14:27:00,39.4,37.2,29.76,WSW,242,1.0,4.0,92,0.05,,,0.22,meteohub,2013-02-19 19:27:00,
2013-02-19 14:32:00,39.4,37.2,29.75,WSW,242,0.0,3.0,92,0.06,,,0.23,meteohub,2013-02-19 19:32:00,
2013-02-19 14:37:00,39.4,37.2,29.75,WSW,257,0.0,2.0,92,0.05,,,0.23,meteohub,2013-02-19 19:37:00,
2013-02-19 14:42:00,39.4,37.2,29.74,NE,44,0.0,2.0,92,0.06,,,0.24,meteohub,2013-02-19 19:42:00,
2013-02-19 14:47:00,39.0,36.9,29.75,WSW,246,0.0,0.0,92,0.05,,,0.24,meteohub,2013-02-19 19:47:00,
2013-02-19 14:52:00,39.0,37.2,29.74,WSW,246,0.0,0.0,93,0.05,,,0.24,meteohub,2013-02-19 19:52:00,
2013-02-19 14:57:00,38.8,37.0,29.74,SW,228,1.0,0.0,93,0.05,,,0.25,meteohub,2013-02-19 19:57:00,
2013-02-19 15:02:00,39.0,37.4,29.74,NNE,25,1.0,4.0,94,0.05,,,0.26,meteohub,2013-02-19 20:02:00,
2013-02-19 15:07:00,39.0,37.4,29.73,SE,139,0.0,4.0,94,0.05,,,0.26,meteohub,2013-02-19 20:07:00,
2013-02-19 15:12:00,39.4,37.8,29.73,SSW,198,0.0,4.0,94,0.05,,,0.26,meteohub,2013-02-19 20:12:00,
2013-02-19 15:17:00,39.6,37.9,29.72,ESE,111,1.0,4.0,94,0.04,,,0.26,meteohub,2013-02-19 20:17:00,
2013-02-19 15:22:00,39.6,37.9,29.72,ESE,102,0.0,4.0,94,0.04,,,0.26,meteohub,2013-02-19 20:22:00,
2013-02-19 15:27:00,39.7,38.1,29.72,NE,56,0.0,4.0,94,0.04,,,0.26,meteohub,2013-02-19 20:27:00,
2013-02-19 15:32:00,39.7,38.1,29.72,NE,56,0.0,3.0,94,0.03,,,0.26,meteohub,2013-02-19 20:32:00,
2013-02-19 15:37:00,39.7,38.1,29.71,NE,56,0.0,1.0,94,0.03,,,0.26,meteohub,2013-02-19 20:37:00,
2013-02-19 15:42:00,39.7,38.1,29.71,NE,55,0.0,1.0,94,0.02,,,0.26,meteohub,2013-02-19 20:42:00,
2013-02-19 15:47:00,39.6,37.9,29.71,NE,55,0.0,1.0,94,0.02,,,0.26,meteohub,2013-02-19 20:47:00,
2013-02-19 15:52:00,39.6,37.9,29.70,NE,56,0.0,1.0,94,0.02,,,0.27,meteohub,2013-02-19 20:52:00,
2013-02-19 15:57:00,39.6,37.9,29.70,NE,56,0.0,1.0,94,0.02,,,0.27,meteohub,2013-02-19 20:57:00,
2013-02-19 16:02:00,39.2,37.6,29.70,NE,56,0.0,1.0,94,0.01,,,0.27,meteohub,2013-02-19 21:02:00,
2013-02-19 16:07:00,39.0,37.4,29.70,NE,56,0.0,1.0,94,0.01,,,0.27,meteohub,2013-02-19 21:07:00,
2013-02-19 16:12:00,38.8,37.2,29.69,NE,56,0.0,1.0,94,0.01,,,0.27,meteohub,2013-02-19 21:12:00,
2013-02-19 16:17:00,38.7,37.0,29.69,NE,56,0.0,0.0,94,0.01,,,0.27,meteohub,2013-02-19 21:17:00,
2013-02-19 16:22:00,38.5,36.9,29.69,NE,55,0.0,0.0,94,0.01,,,0.27,meteohub,2013-02-19 21:22:00,
2013-02-19 16:27:00,38.8,37.6,29.69,NE,56,0.0,0.0,95,0.01,,,0.27,meteohub,2013-02-19 21:27:00,
2013-02-19 16:32:00,38.8,37.6,29.69,SE,139,1.0,0.0,95,0.02,,,0.28,meteohub,2013-02-19 21:32:00,
2013-02-19 16:37:00,39.0,37.8,29.69,SSW,208,0.0,1.0,95,0.02,,,0.28,meteohub,2013-02-19 21:37:00,
2013-02-19 16:42:00,39.2,38.1,29.69,SSW,208,0.0,1.0,96,0.02,,,0.28,meteohub,2013-02-19 21:42:00,
2013-02-19 16:47:00,39.4,38.3,29.68,SE,129,0.0,2.0,96,0.02,,,0.29,meteohub,2013-02-19 21:47:00,
2013-02-19 16:52:00,39.6,38.5,29.68,SE,135,3.0,3.0,96,0.03,,,0.30,meteohub,2013-02-19 21:52:00,
2013-02-19 16:57:00,39.7,38.7,29.68,SE,143,0.0,3.0,96,0.03,,,0.30,meteohub,2013-02-19 21:57:00,
2013-02-19 17:02:00,39.9,38.8,29.67,ESE,120,0.0,3.0,96,0.03,,,0.30,meteohub,2013-02-19 22:02:00,
2013-02-19 17:07:00,40.1,39.0,29.67,SW,228,0.0,3.0,96,0.04,,,0.31,meteohub,2013-02-19 22:07:00,
2013-02-19 17:12:00,40.3,39.2,29.67,West,277,1.0,2.0,96,0.04,,,0.31,meteohub,2013-02-19 22:12:00,
2013-02-19 17:17:00,40.5,39.4,29.67,SSE,149,0.0,3.0,96,0.04,,,0.31,meteohub,2013-02-19 22:17:00,
2013-02-19 17:22:00,40.6,39.6,29.67,SW,214,1.0,3.0,96,0.04,,,0.31,meteohub,2013-02-19 22:22:00,
2013-02-19 17:27:00,40.6,39.6,29.67,SSE,166,0.0,3.0,96,0.03,,,0.31,meteohub,2013-02-19 22:27:00,
2013-02-19 17:32:00,40.8,39.7,29.66,West,262,1.0,2.0,96,0.03,,,0.31,meteohub,2013-02-19 22:32:00,
2013-02-19 17:37:00,40.8,39.7,29.67,West,262,0.0,2.0,96,0.03,,,0.31,meteohub,2013-02-19 22:37:00,
2013-02-19 17:42:00,40.8,39.7,29.68,West,262,0.0,2.0,96,0.02,,,0.31,meteohub,2013-02-19 22:42:00,
2013-02-19 17:47:00,40.6,39.6,29.68,West,262,0.0,2.0,96,0.02,,,0.31,meteohub,2013-02-19 22:47:00,
2013-02-19 17:52:00,40.5,39.4,29.67,West,262,0.0,1.0,96,0.01,,,0.31,meteohub,2013-02-19 22:52:00,
2013-02-19 17:57:00,39.9,38.7,29.67,West,261,0.0,0.0,95,0.01,,,0.31,meteohub,2013-02-19 22:57:00,
2013-02-19 18:02:00,39.7,38.5,29.67,West,262,0.0,0.0,95,0.00,,,0.31,meteohub,2013-02-19 23:02:00,
2013-02-19 18:07:00,39.7,38.7,29.67,West,261,0.0,0.0,96,0.00,,,0.31,meteohub,2013-02-19 23:07:00,
2013-02-19 18:12:00,39.6,38.5,29.66,West,262,0.0,0.0,96,0.00,,,0.31,meteohub,2013-02-19 23:12:00,
2013-02-19 18:17:00,39.4,38.1,29.67,West,262,0.0,0.0,95,0.00,,,0.31,meteohub,2013-02-19 23:17:00,
2013-02-19 18:22:00,39.4,38.3,29.67,West,262,0.0,0.0,96,0.00,,,0.31,meteohub,2013-02-19 23:22:00,
2013-02-19 18:27:00,39.6,38.5,29.67,West,262,0.0,0.0,96,0.00,,,0.31,meteohub,2013-02-19 23:27:00,
2013-02-19 18:32:00,39.4,38.3,29.67,West,262,0.0,0.0,96,0.00,,,0.31,meteohub,2013-02-19 23:32:00,
2013-02-19 18:37:00,38.8,37.8,29.67,West,262,0.0,0.0,96,0.00,,,0.31,meteohub,2013-02-19 23:37:00,
2013-02-19 18:42:00,38.7,37.6,29.66,West,262,0.0,0.0,96,0.00,,,0.31,meteohub,2013-02-19 23:42:00,
2013-02-19 18:47:00,38.5,37.4,29.66,West,262,0.0,0.0,96,0.00,,,0.31,meteohub,2013-02-19 23:47:00,
2013-02-19 18:52:00,38.5,37.4,29.67,West,261,0.0,0.0,96,0.00,,,0.31,meteohub,2013-02-19 23:52:00,
2013-02-19 18:57:00,38.1,37.0,29.68,West,261,0.0,0.0,96,0.00,,,0.31,meteohub,2013-02-19 23:57:00,
2013-02-19 19:02:00,38.1,37.0,29.68,West,262,0.0,0.0,96,0.01,,,0.00,meteohub,2013-02-20 00:02:00,
2013-02-19 19:07:00,38.3,37.6,29.68,WNW,290,0.0,0.0,97,0.01,,,0.00,meteohub,2013-02-20 00:07:00,
2013-02-19 19:12:00,38.8,38.1,29.68,West,267,1.0,3.0,97,0.02,,,0.01,meteohub,2013-02-20 00:12:00,
2013-02-19 19:17:00,39.4,38.7,29.68,West,276,0.0,3.0,97,0.02,,,0.01,meteohub,2013-02-20 00:17:00,
2013-02-19 19:22:00,39.7,39.0,29.67,WSW,255,0.0,4.0,97,0.03,,,0.02,meteohub,2013-02-20 00:22:00,
2013-02-19 19:27:00,39.6,38.8,29.67,West,260,0.0,4.0,97,0.03,,,0.02,meteohub,2013-02-20 00:27:00,
2013-02-19 19:32:00,39.6,38.8,29.67,South,184,0.0,4.0,97,0.03,,,0.02,meteohub,2013-02-20 00:32:00,
2013-02-19 19:37:00,39.6,38.8,29.67,SSW,198,0.0,2.0,97,0.03,,,0.02,meteohub,2013-02-20 00:37:00,
2013-02-19 19:42:00,39.2,38.1,29.67,West,273,0.0,2.0,96,0.03,,,0.02,meteohub,2013-02-20 00:42:00,
2013-02-19 19:47:00,39.4,38.7,29.66,West,262,2.0,2.0,97,0.03,,,0.02,meteohub,2013-02-20 00:47:00,
2013-02-19 19:52:00,39.6,38.8,29.66,WNW,294,2.0,4.0,97,0.03,,,0.02,meteohub,2013-02-20 00:52:00,
2013-02-19 19:57:00,39.6,38.8,29.66,West,268,0.0,4.0,97,0.03,,,0.02,meteohub,2013-02-20 00:57:00,
2013-02-19 20:02:00,39.6,38.8,29.67,WSW,257,2.0,4.0,97,0.02,,,0.02,meteohub,2013-02-20 01:02:00,
2013-02-19 20:07:00,39.7,39.0,29.67,WSW,257,3.0,4.0,97,0.02,,,0.02,meteohub,2013-02-20 01:07:00,
2013-02-19 20:12:00,39.9,38.8,29.68,WSW,257,4.0,9.0,96,0.01,,,0.02,meteohub,2013-02-20 01:12:00,
2013-02-19 20:17:00,39.9,38.7,29.68,SW,228,2.0,9.0,95,0.01,,,0.02,meteohub,2013-02-20 01:17:00,
2013-02-19 20:22:00,39.9,38.7,29.68,SW,214,1.0,6.0,95,0.00,,,0.02,meteohub,2013-02-20 01:22:00,
2013-02-19 20:27:00,39.9,38.3,29.68,WSW,256,0.0,12.0,94,0.00,,,0.02,meteohub,2013-02-20 01:27:00,
2013-02-19 20:32:00,39.7,37.6,29.68,SW,231,2.0,12.0,92,0.00,,,0.02,meteohub,2013-02-20 01:32:00,
2013-02-19 20:37:00,39.7,37.4,29.68,WSW,257,3.0,12.0,91,0.00,,,0.02,meteohub,2013-02-20 01:37:00,
2013-02-19 20:42:00,39.6,37.2,29.68,West,266,0.0,11.0,91,0.00,,,0.02,meteohub,2013-02-20 01:42:00,
2013-02-19 20:47:00,39.4,37.0,29.69,West,276,3.0,9.0,91,0.00,,,0.02,meteohub,2013-02-20 01:47:00,
2013-02-19 20:52:00,39.0,36.7,29.69,West,264,3.0,9.0,91,0.00,,,0.02,meteohub,2013-02-20 01:52:00,
2013-02-19 20:57:00,38.8,36.5,29.69,WNW,302,0.0,5.0,91,0.00,,,0.02,meteohub,2013-02-20 01:57:00,
2013-02-19 21:02:00,38.8,36.5,29.69,West,279,2.0,7.0,91,0.00,,,0.02,meteohub,2013-02-20 02:02:00,
2013-02-19 21:07:00,38.7,36.3,29.69,WNW,302,1.0,7.0,91,0.00,,,0.02,meteohub,2013-02-20 02:07:00,
2013-02-19 21:12:00,38.5,35.8,29.69,WSW,242,5.0,7.0,90,0.00,,,0.02,meteohub,2013-02-20 02:12:00,
2013-02-19 21:17:00,38.3,35.6,29.70,NW,304,4.0,7.0,90,0.00,,,0.02,meteohub,2013-02-20 02:17:00,
2013-02-19 21:22:00,38.3,35.1,29.70,SSW,204,4.0,9.0,88,0.00,,,0.02,meteohub,2013-02-20 02:22:00,
2013-02-19 21:27:00,38.1,34.9,29.70,WNW,297,3.0,9.0,88,0.00,,,0.02,meteohub,2013-02-20 02:27:00,
2013-02-19 21:32:00,37.9,34.7,29.70,WSW,257,2.0,9.0,88,0.00,,,0.02,meteohub,2013-02-20 02:32:00,
2013-02-19 21:37:00,37.9,34.7,29.70,West,281,1.0,8.0,88,0.00,,,0.02,meteohub,2013-02-20 02:37:00,
2013-02-19 21:42:00,37.6,34.3,29.71,West,270,4.0,8.0,88,0.00,,,0.02,meteohub,2013-02-20 02:42:00,
2013-02-19 21:47:00,37.2,33.8,29.71,West,269,5.0,10.0,87,0.00,,,0.02,meteohub,2013-02-20 02:47:00,
2013-02-19 21:52:00,37.6,33.4,29.71,West,267,5.0,10.0,85,0.00,,,0.02,meteohub,2013-02-20 02:52:00,
2013-02-19 21:57:00,37.6,33.3,29.71,West,264,5.0,12.0,84,0.00,,,0.02,meteohub,2013-02-20 02:57:00,
2013-02-19 22:02:00,37.2,32.9,29.72,NE,46,4.0,12.0,84,0.00,,,0.02,meteohub,2013-02-20 03:02:00,
2013-02-19 22:07:00,37.2,32.9,29.72,WSW,240,3.0,11.0,84,0.00,,,0.02,meteohub,2013-02-20 03:07:00,
2013-02-19 22:12:00,37.0,31.8,29.72,WSW,257,2.0,10.0,81,0.00,,,0.02,meteohub,2013-02-20 03:12:00,
2013-02-19 22:17:00,36.7,31.1,29.72,West,278,3.0,9.0,80,0.00,,,0.02,meteohub,2013-02-20 03:17:00,
2013-02-19 22:22:00,36.3,30.7,29.72,West,269,2.0,9.0,80,0.00,,,0.02,meteohub,2013-02-20 03:22:00,
2013-02-19 22:27:00,36.1,30.2,29.72,WNW,285,1.0,9.0,79,0.00,,,0.02,meteohub,2013-02-20 03:27:00,
2013-02-19 22:32:00,36.1,30.0,29.72,NW,304,3.0,8.0,78,0.00,,,0.02,meteohub,2013-02-20 03:32:00,
2013-02-19 22:37:00,36.0,29.8,29.72,WNW,300,2.0,8.0,78,0.00,,,0.02,meteohub,2013-02-20 03:37:00,
2013-02-19 22:42:00,36.0,29.5,29.72,WNW,290,0.0,9.0,77,0.00,,,0.02,meteohub,2013-02-20 03:42:00,
2013-02-19 22:47:00,35.8,29.3,29.72,WNW,299,2.0,9.0,77,0.00,,,0.02,meteohub,2013-02-20 03:47:00,
2013-02-19 22:52:00,35.4,29.5,29.72,West,280,1.0,9.0,79,0.00,,,0.02,meteohub,2013-02-20 03:52:00,
2013-02-19 22:57:00,35.1,29.1,29.72,West,268,4.0,6.0,79,0.00,,,0.02,meteohub,2013-02-20 03:57:00,
2013-02-19 23:02:00,35.1,29.1,29.72,WNW,283,1.0,5.0,79,0.00,,,0.02,meteohub,2013-02-20 04:02:00,
2013-02-19 23:07:00,34.7,28.6,29.73,WNW,293,2.0,5.0,78,0.00,,,0.02,meteohub,2013-02-20 04:07:00,
2013-02-19 23:12:00,34.3,28.6,29.73,NNW,332,1.0,5.0,79,0.00,,,0.02,meteohub,2013-02-20 04:12:00,
2013-02-19 23:17:00,34.3,28.6,29.73,WNW,300,1.0,4.0,79,0.00,,,0.02,meteohub,2013-02-20 04:17:00,
2013-02-19 23:22:00,34.2,28.4,29.73,WNW,287,2.0,4.0,79,0.00,,,0.02,meteohub,2013-02-20 04:22:00,
2013-02-19 23:27:00,34.2,28.6,29.72,NW,308,0.0,5.0,80,0.00,,,0.02,meteohub,2013-02-20 04:27:00,
2013-02-19 23:32:00,33.6,28.0,29.72,West,276,1.0,5.0,80,0.00,,,0.02,meteohub,2013-02-20 04:32:00,
2013-02-19 23:37:00,33.4,28.8,29.73,NW,312,4.0,4.0,83,0.00,,,0.02,meteohub,2013-02-20 04:37:00,
2013-02-19 23:42:00,33.3,28.4,29.73,NNW,333,1.0,4.0,82,0.00,,,0.02,meteohub,2013-02-20 04:42:00,
2013-02-19 23:47:00,33.6,27.9,29.73,WNW,292,3.0,4.0,79,0.00,,,0.02,meteohub,2013-02-20 04:47:00,
2013-02-19 23:52:00,34.2,27.3,29.73,West,276,2.0,10.0,76,0.00,,,0.02,meteohub,2013-02-20 04:52:00,
2013-02-19 23:57:00,34.2,26.8,29.73,NW,321,4.0,10.0,74,0.00,,,0.02,meteohub,2013-02-20 04:57:00,